Time;durP1;ratioP1;P1;durP2;ratioP2;P2;SDS_P1;SDS_P2;PMS_P1;PMS_P2;Temp;Humidity;BMP_temperature;BMP_pressure;BME280_temperature;BME280_humidity;BME280_pressure;Samples;Min_cycle;Max_cycle;Signal;HPM_P1;HPM_P2
2023/03/25 00:00:16;;;;;;;;;;;11.40;87.90;;;;;;4995468;28;20008;-96
2023/03/25 00:02:46;;;;;;;;;;;11.40;88.20;;;;;;4995526;28;19910;-96
2023/03/25 00:05:13;;;;;;;;;;;11.40;88.10;;;;;;4995450;28;19916;-96
2023/03/25 00:07:40;;;;;;;;;;;11.50;87.90;;;;;;4995869;28;19918;-96
2023/03/25 00:10:06;;;;;;;;;;;11.50;87.80;;;;;;4995987;28;19917;-96
2023/03/25 00:12:32;;;;;;;;;;;11.40;88.00;;;;;;4980472;28;19933;-96
2023/03/25 00:14:57;;;;;;;;;;;11.40;88.10;;;;;;4999658;28;19910;-96
2023/03/25 00:17:27;;;;;;;;;;;11.50;88.80;;;;;;4981659;28;19917;-96
2023/03/25 00:19:54;;;;;;;;;;;11.50;89.70;;;;;;4981437;28;19914;-96
2023/03/25 00:22:20;;;;;;;;;;;11.50;89.40;;;;;;4981057;28;19924;-96
2023/03/25 00:24:46;;;;;;;;;;;11.50;89.90;;;;;;4980973;28;19910;-96
2023/03/25 00:27:13;;;;;;;;;;;11.50;90.10;;;;;;4980158;28;19917;-96
2023/03/25 00:29:40;;;;;;;;;;;11.40;89.40;;;;;;4998353;28;19932;-96
2023/03/25 00:32:05;;;;;;;;;;;11.40;88.40;;;;;;4997962;28;19921;-96
2023/03/25 00:34:33;;;;;;;;;;;11.40;88.20;;;;;;4981110;28;19916;-96
2023/03/25 00:37:01;;;;;;;;;;;11.40;88.40;;;;;;4980364;28;19910;-96
2023/03/25 00:39:27;;;;;;;;;;;11.40;89.10;;;;;;4997970;28;19910;-96
2023/03/25 00:41:53;;;;;;;;;;;11.30;88.90;;;;;;4998055;28;20453;-96
2023/03/25 00:44:18;;;;;;;;;;;11.30;89.10;;;;;;4998064;28;19909;-96
2023/03/25 00:46:45;;;;;;;;;;;11.30;88.60;;;;;;4997603;28;19910;-96
2023/03/25 00:49:11;;;;;;;;;;;11.30;87.80;;;;;;4979858;28;19914;-96
2023/03/25 00:51:37;;;;;;;;;;;11.20;87.40;;;;;;4997699;28;19933;-96
2023/03/25 00:54:02;;;;;;;;;;;11.30;87.60;;;;;;4980376;28;19914;-96
2023/03/25 00:56:28;;;;;;;;;;;11.30;88.20;;;;;;4997333;28;19918;-96
2023/03/25 00:58:54;;;;;;;;;;;11.30;89.40;;;;;;4997658;28;19917;-96
2023/03/25 01:01:26;;;;;;;;;;;11.30;89.20;;;;;;4996993;28;19909;-96
2023/03/25 01:03:59;;;;;;;;;;;11.30;88.90;;;;;;4997300;28;20008;-96
2023/03/25 01:06:27;;;;;;;;;;;11.40;89.10;;;;;;4997252;28;19910;-96
2023/03/25 01:08:54;;;;;;;;;;;11.40;89.00;;;;;;4979777;28;19945;-96
2023/03/25 01:11:20;;;;;;;;;;;11.30;88.20;;;;;;4997195;28;19929;-96
2023/03/25 01:13:46;;;;;;;;;;;11.10;87.80;;;;;;4996898;28;19910;-96
2023/03/25 01:16:11;;;;;;;;;;;11.00;88.50;;;;;;4997047;28;19917;-96
2023/03/25 01:18:37;;;;;;;;;;;11.00;88.60;;;;;;4979367;28;19917;-96
2023/03/25 01:21:07;;;;;;;;;;;11.00;88.90;;;;;;4979357;28;19914;-96
2023/03/25 01:23:32;;;;;;;;;;;11.00;89.10;;;;;;4996802;28;19910;-96
2023/03/25 01:25:58;;;;;;;;;;;11.00;89.10;;;;;;4996813;28;20290;-96
2023/03/25 01:28:24;;;;;;;;;;;10.90;88.80;;;;;;4978920;28;19921;-96
2023/03/25 01:30:49;;;;;;;;;;;10.90;89.90;;;;;;4996803;28;20319;-96
2023/03/25 01:33:15;;;;;;;;;;;10.90;90.30;;;;;;4996671;28;20009;-96
2023/03/25 01:35:41;;;;;;;;;;;10.90;90.20;;;;;;4996500;28;19961;-96
2023/03/25 01:38:06;;;;;;;;;;;10.90;90.00;;;;;;4996097;28;20295;-96
2023/03/25 01:40:32;;;;;;;;;;;10.80;89.90;;;;;;4978754;28;19993;-96
2023/03/25 01:42:58;;;;;;;;;;;10.70;89.70;;;;;;4996348;28;19916;-96
2023/03/25 01:45:31;;;;;;;;;;;10.60;89.90;;;;;;4996081;28;19957;-96
2023/03/25 01:48:01;;;;;;;;;;;10.60;90.20;;;;;;4996011;28;19914;-96
2023/03/25 01:50:28;;;;;;;;;;;10.60;90.40;;;;;;4996164;28;19963;-96
2023/03/25 01:52:55;;;;;;;;;;;10.60;90.80;;;;;;4996332;28;19914;-96
2023/03/25 01:55:22;;;;;;;;;;;10.50;90.50;;;;;;4978191;28;20008;-96
2023/03/25 01:57:48;;;;;;;;;;;10.40;88.50;;;;;;4996071;28;19909;-96
2023/03/25 02:00:15;;;;;;;;;;;10.30;89.00;;;;;;4978265;28;20389;-96
2023/03/25 02:02:41;;;;;;;;;;;10.30;88.50;;;;;;4977927;28;19913;-96
2023/03/25 02:05:16;;;;;;;;;;;10.20;88.40;;;;;;4996495;28;20399;-96
2023/03/25 02:07:45;;;;;;;;;;;10.20;88.60;;;;;;4995595;28;19914;-96
2023/03/25 02:10:11;;;;;;;;;;;10.10;89.50;;;;;;4978279;28;19914;-96
2023/03/25 02:12:36;;;;;;;;;;;10.10;88.90;;;;;;4996235;28;20278;-96
2023/03/25 02:15:04;;;;;;;;;;;9.90;87.20;;;;;;4995521;28;19914;-96
2023/03/25 02:17:30;;;;;;;;;;;9.80;87.90;;;;;;4996019;28;19910;-96
2023/03/25 02:20:06;;;;;;;;;;;9.80;88.50;;;;;;4979510;28;19933;-96
2023/03/25 02:22:46;;;;;;;;;;;9.80;89.30;;;;;;4997564;28;19910;-96
2023/03/25 02:25:18;;;;;;;;;;;9.70;89.20;;;;;;4996680;28;20422;-96
2023/03/25 02:27:47;;;;;;;;;;;9.60;89.00;;;;;;4979512;28;19917;-96
2023/03/25 02:30:29;;;;;;;;;;;9.50;89.20;;;;;;4979644;28;19972;-96
2023/03/25 02:33:00;;;;;;;;;;;9.50;90.30;;;;;;4997111;28;19917;-96
2023/03/25 02:35:48;;;;;;;;;;;9.60;91.90;;;;;;4996448;28;19997;-96
2023/03/25 02:38:20;;;;;;;;;;;9.50;92.10;;;;;;4997290;28;19910;-96
2023/03/25 02:41:06;;;;;;;;;;;9.30;91.70;;;;;;4996762;28;19913;-96
2023/03/25 02:43:40;;;;;;;;;;;9.30;91.90;;;;;;4966245;28;20009;-96
2023/03/25 02:46:07;;;;;;;;;;;9.20;91.40;;;;;;4979480;28;19914;-96
2023/03/25 02:48:36;;;;;;;;;;;9.10;91.00;;;;;;4997091;28;19960;-96
2023/03/25 02:51:09;;;;;;;;;;;9.10;91.10;;;;;;4997014;28;20334;-96
2023/03/25 02:53:36;;;;;;;;;;;9.00;91.10;;;;;;4979126;28;19916;-96
2023/03/25 02:56:05;;;;;;;;;;;8.90;91.80;;;;;;5003299;23;20465;-96
2023/03/25 02:58:31;;;;;;;;;;;8.90;91.80;;;;;;4997149;28;19925;-96
2023/03/25 03:00:57;;;;;;;;;;;8.90;91.90;;;;;;4997331;28;20359;-96
2023/03/25 03:03:24;;;;;;;;;;;8.80;92.00;;;;;;4978827;28;19914;-96
2023/03/25 03:05:50;;;;;;;;;;;8.80;93.50;;;;;;4996907;28;19959;-96
2023/03/25 03:08:17;;;;;;;;;;;8.90;93.10;;;;;;4996319;28;19921;-96
2023/03/25 03:10:49;;;;;;;;;;;9.00;93.40;;;;;;4979035;28;19964;-96
2023/03/25 03:13:17;;;;;;;;;;;9.10;93.30;;;;;;4996336;28;19937;-96
2023/03/25 03:15:49;;;;;;;;;;;9.10;93.00;;;;;;4979175;28;19913;-96
2023/03/25 03:18:25;;;;;;;;;;;9.10;92.70;;;;;;4996451;28;19933;-96
2023/03/25 03:20:59;;;;;;;;;;;9.00;92.30;;;;;;4995141;28;20367;-96
2023/03/25 03:23:32;;;;;;;;;;;8.90;92.20;;;;;;4977602;28;19949;-96
2023/03/25 03:26:10;;;;;;;;;;;9.00;92.10;;;;;;4995044;28;19910;-96
2023/03/25 03:28:36;;;;;;;;;;;8.90;91.50;;;;;;4977242;28;19936;-96
2023/03/25 03:31:05;;;;;;;;;;;8.90;91.40;;;;;;4977328;28;20376;-96
2023/03/25 03:33:31;;;;;;;;;;;8.80;91.50;;;;;;4977193;28;19910;-96
2023/03/25 03:36:00;;;;;;;;;;;8.80;91.50;;;;;;4995429;28;19917;-96
2023/03/25 03:38:28;;;;;;;;;;;8.70;91.70;;;;;;4994743;28;19910;-96
2023/03/25 03:40:55;;;;;;;;;;;8.80;91.70;;;;;;4994491;28;20008;-96
2023/03/25 03:43:30;;;;;;;;;;;8.60;91.30;;;;;;4977069;28;19910;-96
2023/03/25 03:46:01;;;;;;;;;;;8.60;91.60;;;;;;4995297;28;19909;-96
2023/03/25 03:48:33;;;;;;;;;;;8.60;91.50;;;;;;4980665;28;19914;-96
2023/03/25 03:51:06;;;;;;;;;;;8.70;91.60;;;;;;4980683;28;20339;-96
2023/03/25 03:53:35;;;;;;;;;;;8.60;91.50;;;;;;4980711;28;19910;-96
2023/03/25 03:56:04;;;;;;;;;;;8.50;90.40;;;;;;4997596;28;20362;-96
2023/03/25 03:58:33;;;;;;;;;;;8.50;90.70;;;;;;4980410;28;20277;-96
2023/03/25 04:01:11;;;;;;;;;;;8.50;90.50;;;;;;4980329;28;19910;-96
2023/03/25 04:03:48;;;;;;;;;;;8.40;90.40;;;;;;4997756;28;19910;-96
2023/03/25 04:06:20;;;;;;;;;;;8.40;89.90;;;;;;4997952;28;20000;-96
2023/03/25 04:08:51;;;;;;;;;;;8.30;89.40;;;;;;4980313;28;19960;-96
2023/03/25 04:11:22;;;;;;;;;;;8.30;90.10;;;;;;4998062;28;19910;-96
2023/03/25 04:13:49;;;;;;;;;;;8.20;90.00;;;;;;4997893;28;19913;-96
2023/03/25 04:16:15;;;;;;;;;;;8.20;90.20;;;;;;4998197;28;19913;-96
2023/03/25 04:18:42;;;;;;;;;;;8.30;90.90;;;;;;4980203;28;20426;-96
2023/03/25 04:21:08;;;;;;;;;;;8.30;91.50;;;;;;4997723;28;19910;-96
2023/03/25 04:23:36;;;;;;;;;;;8.30;92.00;;;;;;4997668;28;19909;-96
2023/03/25 04:26:02;;;;;;;;;;;8.10;92.30;;;;;;4979912;28;19932;-96
2023/03/25 04:28:28;;;;;;;;;;;8.00;91.90;;;;;;4997595;28;19913;-96
2023/03/25 04:30:59;;;;;;;;;;;7.90;91.70;;;;;;4997746;28;20360;-96
2023/03/25 04:33:25;;;;;;;;;;;7.90;91.80;;;;;;4997372;28;19914;-96
2023/03/25 04:35:51;;;;;;;;;;;7.90;92.00;;;;;;4979797;28;19910;-96
2023/03/25 04:38:19;;;;;;;;;;;7.90;92.10;;;;;;4997162;28;19916;-96
2023/03/25 04:40:45;;;;;;;;;;;7.90;93.20;;;;;;4996888;28;20029;-96
2023/03/25 04:43:12;;;;;;;;;;;7.90;93.50;;;;;;4979549;28;19919;-96
2023/03/25 04:45:37;;;;;;;;;;;8.00;93.40;;;;;;4997377;28;20275;-96
2023/03/25 04:48:04;;;;;;;;;;;7.90;93.00;;;;;;4979921;28;20004;-96
2023/03/25 04:50:31;;;;;;;;;;;8.00;93.30;;;;;;4997875;28;20013;-96
2023/03/25 04:52:59;;;;;;;;;;;8.00;93.00;;;;;;4979800;28;19936;-96
2023/03/25 04:55:24;;;;;;;;;;;7.80;93.20;;;;;;4979392;28;19928;-96
2023/03/25 04:57:50;;;;;;;;;;;7.80;93.70;;;;;;4996538;28;19910;-96
2023/03/25 05:00:19;;;;;;;;;;;7.80;94.10;;;;;;4996678;28;19917;-96
2023/03/25 05:02:46;;;;;;;;;;;7.90;94.20;;;;;;4996510;28;19980;-96
2023/03/25 05:05:19;;;;;;;;;;;7.80;93.70;;;;;;4979095;28;20291;-96
2023/03/25 05:07:49;;;;;;;;;;;7.80;93.90;;;;;;4997072;28;19914;-96
2023/03/25 05:10:15;;;;;;;;;;;7.70;93.30;;;;;;4979205;28;20013;-96
2023/03/25 05:12:41;;;;;;;;;;;7.40;93.20;;;;;;4997245;28;19917;-96
2023/03/25 05:15:07;;;;;;;;;;;7.40;93.60;;;;;;4997996;28;19909;-96
2023/03/25 05:17:33;;;;;;;;;;;7.40;93.80;;;;;;4981773;28;20346;-96
2023/03/25 05:19:59;;;;;;;;;;;7.50;93.80;;;;;;4981780;28;19910;-96
2023/03/25 05:22:24;;;;;;;;;;;7.60;94.00;;;;;;4999911;28;20367;-96
2023/03/25 05:24:52;;;;;;;;;;;7.60;93.90;;;;;;4982270;28;19944;-96
2023/03/25 05:27:19;;;;;;;;;;;7.70;93.80;;;;;;5000464;28;19924;-96
2023/03/25 05:29:44;;;;;;;;;;;7.70;93.90;;;;;;5000281;28;19975;-96
2023/03/25 05:32:12;;;;;;;;;;;7.70;93.80;;;;;;4983357;28;20426;-96
2023/03/25 05:34:38;;;;;;;;;;;7.70;93.90;;;;;;5000393;28;19909;-96
2023/03/25 05:37:04;;;;;;;;;;;7.70;93.80;;;;;;4982148;28;19921;-96
2023/03/25 05:39:30;;;;;;;;;;;7.60;94.00;;;;;;4998362;28;19909;-96
2023/03/25 05:42:01;;;;;;;;;;;7.70;94.10;;;;;;4997207;28;19916;-96
2023/03/25 05:44:27;;;;;;;;;;;7.50;94.10;;;;;;4998007;28;19910;-96
2023/03/25 05:46:53;;;;;;;;;;;7.40;93.70;;;;;;4981199;28;19910;-96
2023/03/25 05:49:20;;;;;;;;;;;7.40;93.30;;;;;;4997370;28;20326;-96
2023/03/25 05:51:48;;;;;;;;;;;7.20;93.80;;;;;;4979190;28;19914;-96
2023/03/25 05:54:14;;;;;;;;;;;7.20;93.20;;;;;;4979616;28;19920;-96
2023/03/25 05:56:41;;;;;;;;;;;7.30;93.30;;;;;;4996247;28;19922;-96
2023/03/25 05:59:07;;;;;;;;;;;7.30;93.40;;;;;;4977940;28;20390;-96
2023/03/25 06:01:33;;;;;;;;;;;7.40;93.90;;;;;;4995220;28;19916;-96
2023/03/25 06:04:02;;;;;;;;;;;7.40;93.80;;;;;;4995279;28;19910;-96
2023/03/25 06:06:29;;;;;;;;;;;7.50;94.10;;;;;;4978023;28;19917;-96
2023/03/25 06:08:54;;;;;;;;;;;7.70;94.10;;;;;;4994196;28;20318;-96
2023/03/25 06:11:20;;;;;;;;;;;7.80;94.30;;;;;;4995458;28;19914;-96
2023/03/25 06:13:49;;;;;;;;;;;7.90;94.50;;;;;;4977666;28;19944;-96
2023/03/25 06:16:17;;;;;;;;;;;8.00;94.30;;;;;;4977463;28;19917;-96
2023/03/25 06:18:43;;;;;;;;;;;8.10;94.10;;;;;;4995111;28;19960;-96
2023/03/25 06:21:10;;;;;;;;;;;8.20;93.90;;;;;;4994895;28;19909;-96
2023/03/25 06:23:38;;;;;;;;;;;8.30;93.70;;;;;;4994848;28;20351;-96
2023/03/25 06:26:03;;;;;;;;;;;8.20;93.40;;;;;;4995086;28;20362;-96
2023/03/25 06:28:29;;;;;;;;;;;8.30;93.30;;;;;;4994738;28;19937;-96
2023/03/25 06:30:55;;;;;;;;;;;8.30;93.20;;;;;;4994819;28;20354;-96
2023/03/25 06:33:21;;;;;;;;;;;8.40;93.00;;;;;;4995031;28;19910;-96
2023/03/25 06:35:53;;;;;;;;;;;8.50;92.80;;;;;;4994715;28;19910;-96
2023/03/25 06:38:20;;;;;;;;;;;8.50;92.80;;;;;;4995245;28;19963;-96
2023/03/25 06:40:46;;;;;;;;;;;8.60;92.70;;;;;;4994614;28;19910;-96
2023/03/25 06:43:12;;;;;;;;;;;8.70;92.60;;;;;;4994818;28;19918;-96
2023/03/25 06:45:37;;;;;;;;;;;8.80;92.70;;;;;;4994777;28;19917;-96
2023/03/25 06:48:04;;;;;;;;;;;8.90;92.60;;;;;;4994447;28;20264;-96
2023/03/25 06:50:30;;;;;;;;;;;9.00;93.90;;;;;;4994881;28;19961;-96
2023/03/25 06:52:55;;;;;;;;;;;9.10;93.90;;;;;;4994502;28;19914;-96
2023/03/25 06:55:21;;;;;;;;;;;9.20;94.30;;;;;;4994421;28;20024;-96
2023/03/25 06:57:46;;;;;;;;;;;9.40;94.50;;;;;;4977891;28;19910;-96
2023/03/25 07:00:12;;;;;;;;;;;9.50;95.00;;;;;;4977145;28;19910;-96
2023/03/25 07:02:38;;;;;;;;;;;9.80;94.90;;;;;;4994308;28;19910;-96
2023/03/25 07:05:04;;;;;;;;;;;10.00;94.70;;;;;;4995506;28;19980;-96
2023/03/25 07:07:30;;;;;;;;;;;10.10;94.70;;;;;;4995384;28;20379;-96
2023/03/25 07:09:56;;;;;;;;;;;10.50;94.70;;;;;;4996084;28;19963;-96
2023/03/25 07:12:22;;;;;;;;;;;10.80;94.30;;;;;;4978026;28;19910;-96
2023/03/25 07:14:51;;;;;;;;;;;10.90;94.10;;;;;;4996108;28;19910;-96
2023/03/25 07:17:16;;;;;;;;;;;10.90;94.00;;;;;;4977759;28;19910;-96
2023/03/25 07:19:42;;;;;;;;;;;11.10;94.00;;;;;;4995193;28;19960;-96
2023/03/25 07:22:08;;;;;;;;;;;11.30;93.90;;;;;;4981778;28;20282;-96
2023/03/25 07:24:34;;;;;;;;;;;11.40;93.90;;;;;;4999517;28;19920;-96
2023/03/25 07:26:59;;;;;;;;;;;11.60;93.70;;;;;;4981673;28;20001;-96
2023/03/25 07:29:25;;;;;;;;;;;11.80;93.40;;;;;;4998827;28;19917;-96
2023/03/25 07:31:50;;;;;;;;;;;11.90;93.40;;;;;;4998367;28;20256;-96
2023/03/25 07:34:16;;;;;;;;;;;12.10;93.40;;;;;;4997909;28;20333;-96
2023/03/25 07:36:41;;;;;;;;;;;12.10;93.30;;;;;;4998211;28;19910;-96
2023/03/25 07:39:07;;;;;;;;;;;12.20;93.20;;;;;;4998193;28;20251;-96
2023/03/25 07:41:33;;;;;;;;;;;12.30;93.10;;;;;;4980323;28;19917;-96
2023/03/25 07:43:58;;;;;;;;;;;12.40;93.00;;;;;;4997807;28;19917;-96
2023/03/25 07:46:24;;;;;;;;;;;12.60;92.60;;;;;;4997900;28;20294;-96
2023/03/25 07:48:49;;;;;;;;;;;12.80;92.20;;;;;;4997705;28;20005;-96
2023/03/25 07:51:15;;;;;;;;;;;12.80;91.70;;;;;;4997815;28;19909;-96
2023/03/25 07:53:43;;;;;;;;;;;12.90;91.30;;;;;;4997791;28;20286;-96
2023/03/25 07:56:09;;;;;;;;;;;13.10;90.60;;;;;;4997395;28;19922;-96
2023/03/25 07:58:35;;;;;;;;;;;13.30;90.10;;;;;;4998082;28;20000;-96
2023/03/25 08:01:00;;;;;;;;;;;13.50;88.40;;;;;;4997390;28;20401;-96
2023/03/25 08:03:27;;;;;;;;;;;13.50;87.80;;;;;;4997209;28;19910;-96
2023/03/25 08:05:52;;;;;;;;;;;13.60;87.30;;;;;;4997688;28;19917;-96
2023/03/25 08:08:18;;;;;;;;;;;13.70;86.80;;;;;;4979830;28;19914;-96
2023/03/25 08:10:46;;;;;;;;;;;13.80;86.70;;;;;;4998095;28;19914;-96
2023/03/25 08:13:12;;;;;;;;;;;13.80;86.50;;;;;;4981574;28;19954;-96
2023/03/25 08:15:38;;;;;;;;;;;13.90;86.40;;;;;;4999189;28;20275;-96
2023/03/25 08:18:05;;;;;;;;;;;13.90;86.20;;;;;;4981902;28;20268;-96
2023/03/25 08:20:31;;;;;;;;;;;14.00;86.30;;;;;;4981367;28;19957;-96
2023/03/25 08:22:57;;;;;;;;;;;14.10;85.70;;;;;;4997465;28;19916;-96
2023/03/25 08:25:23;;;;;;;;;;;14.20;85.30;;;;;;4997232;28;19910;-96
2023/03/25 08:27:48;;;;;;;;;;;14.30;84.90;;;;;;4997379;28;19921;-96
2023/03/25 08:30:14;;;;;;;;;;;14.40;85.10;;;;;;4997419;28;19961;-96
2023/03/25 08:32:40;;;;;;;;;;;14.50;84.60;;;;;;4996166;28;19910;-96
2023/03/25 08:35:06;;;;;;;;;;;14.60;84.10;;;;;;4996960;28;19917;-96
2023/03/25 08:37:36;;;;;;;;;;;14.70;83.20;;;;;;4997126;28;20000;-96
2023/03/25 08:40:08;;;;;;;;;;;14.80;82.90;;;;;;4996770;28;19932;-96
2023/03/25 08:42:35;;;;;;;;;;;14.80;82.30;;;;;;4996664;28;19921;-96
2023/03/25 08:45:01;;;;;;;;;;;14.90;81.80;;;;;;4996554;28;19917;-96
2023/03/25 08:47:26;;;;;;;;;;;14.90;81.70;;;;;;4996358;28;19909;-96
2023/03/25 08:49:52;;;;;;;;;;;14.90;81.70;;;;;;4996570;28;19917;-96
2023/03/25 08:52:17;;;;;;;;;;;15.00;81.30;;;;;;4996550;28;20282;-96
2023/03/25 08:54:43;;;;;;;;;;;15.00;80.40;;;;;;4996674;28;19925;-96
2023/03/25 08:57:08;;;;;;;;;;;15.00;80.30;;;;;;4978966;28;19910;-96
2023/03/25 08:59:34;;;;;;;;;;;15.20;80.20;;;;;;4996699;28;19915;-96
2023/03/25 09:01:59;;;;;;;;;;;15.30;78.90;;;;;;4996476;28;19955;-96
2023/03/25 09:04:25;;;;;;;;;;;15.40;77.80;;;;;;4996591;28;20383;-96
2023/03/25 09:06:50;;;;;;;;;;;15.40;77.70;;;;;;4978775;28;20406;-96
2023/03/25 09:09:16;;;;;;;;;;;15.60;77.80;;;;;;4996347;28;19921;-96
2023/03/25 09:11:43;;;;;;;;;;;15.70;77.30;;;;;;4996182;28;19909;-96
2023/03/25 09:14:09;;;;;;;;;;;15.80;76.90;;;;;;4996339;28;19910;-96
2023/03/25 09:16:34;;;;;;;;;;;15.90;77.90;;;;;;4996372;28;20346;-96
2023/03/25 09:19:00;;;;;;;;;;;16.10;77.50;;;;;;4996031;28;19910;-96
2023/03/25 09:21:26;;;;;;;;;;;16.30;75.00;;;;;;4996289;28;19910;-96
2023/03/25 09:23:51;;;;;;;;;;;16.40;73.90;;;;;;4995922;28;20283;-96
2023/03/25 09:26:17;;;;;;;;;;;16.30;73.00;;;;;;4995911;28;19916;-96
2023/03/25 09:28:43;;;;;;;;;;;16.40;72.90;;;;;;4995833;28;19913;-96
2023/03/25 09:31:09;;;;;;;;;;;16.40;73.40;;;;;;4996244;28;19910;-96
2023/03/25 09:33:34;;;;;;;;;;;16.40;73.60;;;;;;4996013;28;19964;-96
2023/03/25 09:36:01;;;;;;;;;;;16.30;73.40;;;;;;4995701;28;19964;-96
2023/03/25 09:38:26;;;;;;;;;;;16.20;74.00;;;;;;4995689;28;19916;-96
2023/03/25 09:40:52;;;;;;;;;;;16.20;74.60;;;;;;4995904;28;19913;-96
2023/03/25 09:43:18;;;;;;;;;;;16.20;74.50;;;;;;4995669;28;20017;-96
2023/03/25 09:45:46;;;;;;;;;;;16.20;75.00;;;;;;4995384;28;20379;-96
2023/03/25 09:48:14;;;;;;;;;;;16.30;75.60;;;;;;4995387;28;19913;-96
2023/03/25 09:50:42;;;;;;;;;;;16.50;76.10;;;;;;4995485;28;19909;-96
2023/03/25 09:53:14;;;;;;;;;;;16.70;73.60;;;;;;4995162;28;19953;-96
2023/03/25 09:55:41;;;;;;;;;;;16.80;72.90;;;;;;4995191;28;19922;-96
2023/03/25 09:58:13;;;;;;;;;;;16.80;72.70;;;;;;4995278;28;19917;-96
2023/03/25 10:00:39;;;;;;;;;;;16.90;73.00;;;;;;4995139;28;20390;-96
2023/03/25 10:03:20;;;;;;;;;;;17.00;73.30;;;;;;4995013;28;19914;-96
2023/03/25 10:06:04;;;;;;;;;;;17.20;72.70;;;;;;4977622;28;19914;-96
2023/03/25 10:08:33;;;;;;;;;;;17.20;72.50;;;;;;4995047;28;19921;-96
2023/03/25 10:11:02;;;;;;;;;;;17.30;71.40;;;;;;4995602;28;19964;-96
2023/03/25 10:13:37;;;;;;;;;;;17.30;72.40;;;;;;4977649;28;19909;-96
2023/03/25 10:16:16;;;;;;;;;;;17.30;71.20;;;;;;4995288;28;19916;-96
2023/03/25 10:19:00;;;;;;;;;;;17.30;71.20;;;;;;4977437;28;19917;-96
2023/03/25 10:21:25;;;;;;;;;;;17.40;72.40;;;;;;4977492;28;20012;-96
2023/03/25 10:24:12;;;;;;;;;;;17.50;70.70;;;;;;4977439;28;19964;-96
2023/03/25 10:26:56;;;;;;;;;;;17.60;69.80;;;;;;4995095;28;19910;-96
2023/03/25 10:29:27;;;;;;;;;;;17.50;70.50;;;;;;4977277;28;19914;-96
2023/03/25 10:31:53;;;;;;;;;;;17.60;70.60;;;;;;4995089;28;19910;-96
2023/03/25 10:34:23;;;;;;;;;;;17.70;70.10;;;;;;4994998;28;20000;-96
2023/03/25 10:36:57;;;;;;;;;;;17.80;70.40;;;;;;4994607;28;19910;-96
2023/03/25 10:39:23;;;;;;;;;;;17.80;69.30;;;;;;4994946;28;19945;-96
2023/03/25 10:42:02;;;;;;;;;;;17.70;70.40;;;;;;4994612;28;19997;-96
2023/03/25 10:44:29;;;;;;;;;;;17.80;71.20;;;;;;4994780;28;19932;-96
2023/03/25 10:47:18;;;;;;;;;;;17.90;71.50;;;;;;4995048;28;19956;-96
2023/03/25 10:49:45;;;;;;;;;;;18.00;70.80;;;;;;4983859;28;19922;-96
2023/03/25 10:52:11;;;;;;;;;;;18.10;69.80;;;;;;4995024;28;19910;-96
2023/03/25 10:54:40;;;;;;;;;;;18.20;70.00;;;;;;4982667;23;19930;-96
2023/03/25 10:57:07;;;;;;;;;;;18.30;68.20;;;;;;4994777;28;19925;-96
2023/03/25 10:59:45;;;;;;;;;;;18.30;68.20;;;;;;4994405;28;19910;-96
2023/03/25 11:02:24;;;;;;;;;;;18.30;67.50;;;;;;4994257;28;19910;-96
2023/03/25 11:04:53;;;;;;;;;;;18.30;68.40;;;;;;5000436;28;19935;-96
2023/03/25 11:07:19;;;;;;;;;;;18.40;68.10;;;;;;4987618;28;19910;-96
2023/03/25 11:09:45;;;;;;;;;;;18.50;67.90;;;;;;4986253;28;19918;-96
2023/03/25 11:12:11;;;;;;;;;;;18.60;67.30;;;;;;5005400;28;19938;-96
2023/03/25 11:14:38;;;;;;;;;;;18.80;68.00;;;;;;5003104;28;20291;-96
2023/03/25 11:17:13;;;;;;;;;;;18.90;66.40;;;;;;5001138;28;19914;-96
2023/03/25 11:19:40;;;;;;;;;;;18.90;66.20;;;;;;5000750;28;20005;-96
2023/03/25 11:22:09;;;;;;;;;;;18.80;66.60;;;;;;5002350;28;19910;-96
2023/03/25 11:24:39;;;;;;;;;;;18.90;67.40;;;;;;5003764;28;19913;-96
2023/03/25 11:27:07;;;;;;;;;;;19.00;66.20;;;;;;4988213;28;19942;-96
2023/03/25 11:29:34;;;;;;;;;;;19.10;65.90;;;;;;4986359;28;19921;-96
2023/03/25 11:32:11;;;;;;;;;;;19.30;65.10;;;;;;4985844;28;19910;-97
2023/03/25 11:34:40;;;;;;;;;;;19.60;63.60;;;;;;4988411;28;19957;-96
2023/03/25 11:37:14;;;;;;;;;;;19.80;63.60;;;;;;5005782;28;20378;-96
2023/03/25 11:39:41;;;;;;;;;;;19.90;63.60;;;;;;4989648;28;19914;-97
2023/03/25 11:42:09;;;;;;;;;;;20.00;65.30;;;;;;5005602;28;19910;-96
2023/03/25 11:44:35;;;;;;;;;;;20.10;62.60;;;;;;4986628;28;19964;-97
2023/03/25 11:47:05;;;;;;;;;;;20.20;62.40;;;;;;5004747;28;19910;-96
2023/03/25 11:49:35;;;;;;;;;;;20.30;62.90;;;;;;5003964;28;19914;-96
2023/03/25 11:52:09;;;;;;;;;;;20.60;62.80;;;;;;5002921;28;19909;-96
2023/03/25 11:54:35;;;;;;;;;;;20.80;61.60;;;;;;4994659;28;19914;-96
2023/03/25 11:57:06;;;;;;;;;;;21.10;60.60;;;;;;4976499;28;20382;-96
2023/03/25 11:59:35;;;;;;;;;;;21.30;60.20;;;;;;4994204;28;20000;-96
2023/03/25 12:02:33;;;;;;;;;;;21.70;61.20;;;;;;4976268;28;20009;-96
2023/03/25 12:05:11;;;;;;;;;;;22.00;60.00;;;;;;4951390;28;19910;-96
2023/03/25 12:07:59;;;;;;;;;;;22.30;58.50;;;;;;4994817;28;19910;-96
2023/03/25 12:10:31;;;;;;;;;;;22.60;57.10;;;;;;4970043;28;19913;-96
2023/03/25 12:13:12;;;;;;;;;;;23.00;57.20;;;;;;4997618;28;19960;-96
2023/03/25 12:15:41;;;;;;;;;;;23.30;56.60;;;;;;4997512;28;19910;-96
2023/03/25 12:18:33;;;;;;;;;;;23.80;55.60;;;;;;4997782;28;19957;-96
2023/03/25 12:20:58;;;;;;;;;;;24.10;52.20;;;;;;4993227;28;19921;-96
2023/03/25 12:23:24;;;;;;;;;;;24.30;51.20;;;;;;4997699;28;20352;-96
2023/03/25 12:25:58;;;;;;;;;;;24.40;51.10;;;;;;4997063;28;19910;-96
2023/03/25 12:28:24;;;;;;;;;;;24.60;53.10;;;;;;4997571;28;19914;-96
2023/03/25 12:31:03;;;;;;;;;;;24.80;51.70;;;;;;4997313;28;20295;-96
2023/03/25 12:33:34;;;;;;;;;;;25.20;49.50;;;;;;4997171;28;20322;-96
2023/03/25 12:36:11;;;;;;;;;;;25.80;48.80;;;;;;4979456;28;19917;-96
2023/03/25 12:39:07;;;;;;;;;;;26.10;48.80;;;;;;4997129;28;20009;-96
2023/03/25 12:41:36;;;;;;;;;;;26.00;48.40;;;;;;4963679;28;20000;-96
2023/03/25 12:44:20;;;;;;;;;;;25.70;47.70;;;;;;4979286;28;19917;-96
2023/03/25 12:46:58;;;;;;;;;;;25.60;48.60;;;;;;4996997;28;20003;-96
2023/03/25 12:49:29;;;;;;;;;;;25.40;47.70;;;;;;4996903;28;19914;-96
2023/03/25 12:52:01;;;;;;;;;;;25.00;50.10;;;;;;4997182;28;19910;-96
2023/03/25 12:54:34;;;;;;;;;;;25.20;49.80;;;;;;4996688;28;19910;-96
2023/03/25 12:57:12;;;;;;;;;;;25.60;47.70;;;;;;4996837;28;19967;-96
2023/03/25 12:59:45;;;;;;;;;;;25.90;47.40;;;;;;4996481;28;19910;-96
2023/03/25 13:02:30;;;;;;;;;;;26.50;48.40;;;;;;4978831;28;19956;-96
2023/03/25 13:04:56;;;;;;;;;;;27.00;46.40;;;;;;4996683;28;19969;-96
2023/03/25 13:07:27;;;;;;;;;;;26.60;41.10;;;;;;4996316;28;19932;-96
2023/03/25 13:10:02;;;;;;;;;;;26.80;45.10;;;;;;4996528;28;20398;-96
2023/03/25 13:12:28;;;;;;;;;;;26.90;43.20;;;;;;4996534;28;19916;-96
2023/03/25 13:14:56;;;;;;;;;;;27.10;44.70;;;;;;4996513;28;19910;-96
2023/03/25 13:17:43;;;;;;;;;;;27.20;44.30;;;;;;4996128;28;19910;-96
2023/03/25 13:20:09;;;;;;;;;;;27.40;43.20;;;;;;4996507;28;19917;-96
2023/03/25 13:22:38;;;;;;;;;;;27.70;41.60;;;;;;4978998;28;19914;-96
2023/03/25 13:25:07;;;;;;;;;;;28.10;40.50;;;;;;4996273;28;20040;-96
2023/03/25 13:27:40;;;;;;;;;;;28.20;37.20;;;;;;4996284;28;19910;-96
2023/03/25 13:30:12;;;;;;;;;;;27.70;39.50;;;;;;4995822;28;20367;-96
2023/03/25 13:32:46;;;;;;;;;;;27.20;41.30;;;;;;4982433;28;19934;-96
2023/03/25 13:35:26;;;;;;;;;;;26.50;40.90;;;;;;4983097;28;19965;-96
2023/03/25 13:37:55;;;;;;;;;;;26.10;36.40;;;;;;5002462;28;19910;-96
2023/03/25 13:40:23;;;;;;;;;;;25.70;37.30;;;;;;4982154;28;19910;-96
2023/03/25 13:43:00;;;;;;;;;;;25.10;38.10;;;;;;4999598;28;19917;-96
2023/03/25 13:45:27;;;;;;;;;;;24.70;39.00;;;;;;4999904;28;19910;-96
2023/03/25 13:47:59;;;;;;;;;;;23.90;37.00;;;;;;4998816;28;19949;-96
2023/03/25 13:50:26;;;;;;;;;;;23.10;40.20;;;;;;4996420;28;19914;-96
2023/03/25 13:52:58;;;;;;;;;;;22.40;36.20;;;;;;4997041;28;19909;-96
2023/03/25 13:55:28;;;;;;;;;;;22.00;42.30;;;;;;4978450;28;19925;-96
2023/03/25 13:57:54;;;;;;;;;;;21.70;35.70;;;;;;4996410;28;19910;-96
2023/03/25 14:00:38;;;;;;;;;;;21.50;33.50;;;;;;4996543;28;20419;-96
2023/03/25 14:03:07;;;;;;;;;;;21.40;32.10;;;;;;4986080;28;19910;-96
2023/03/25 14:06:05;;;;;;;;;;;21.20;32.90;;;;;;4996038;28;19910;-96
2023/03/25 14:08:30;;;;;;;;;;;21.00;33.60;;;;;;4952174;28;19981;-95
2023/03/25 14:11:15;;;;;;;;;;;21.00;33.10;;;;;;4995732;28;20359;-96
2023/03/25 14:13:43;;;;;;;;;;;20.80;34.40;;;;;;4995098;28;19910;-95
2023/03/25 14:16:13;;;;;;;;;;;20.50;34.40;;;;;;4995357;28;19909;-95
2023/03/25 14:18:43;;;;;;;;;;;20.30;34.10;;;;;;4995021;28;19910;-96
2023/03/25 14:21:23;;;;;;;;;;;20.30;32.30;;;;;;4994972;28;19909;-95
2023/03/25 14:23:59;;;;;;;;;;;20.30;35.20;;;;;;4995208;28;19910;-96
2023/03/25 14:26:25;;;;;;;;;;;20.30;34.90;;;;;;4977507;28;19910;-96
2023/03/25 14:28:53;;;;;;;;;;;20.30;34.60;;;;;;4995041;28;19949;-96
2023/03/25 14:31:22;;;;;;;;;;;20.30;33.10;;;;;;4994134;28;20411;-96